createdAt,value
2022-10-04T00:01:50.455Z,101736.28
2022-10-04T00:09:30.942Z,101736.22
2022-10-04T00:17:11.829Z,101735.38
2022-10-04T00:25:21.229Z,101738.91
2022-10-04T00:33:02.648Z,101738.81
2022-10-04T00:40:46.515Z,101746.78
2022-10-04T00:48:34.593Z,101759.25
2022-10-04T00:56:13.107Z,101742.22
2022-10-04T01:03:47.950Z,101745.72
2022-10-04T01:11:28.143Z,101743.03
2022-10-04T01:19:29.666Z,101744.72
2022-10-04T01:27:06.014Z,101744.66
2022-10-04T01:34:41.998Z,101729.41
2022-10-04T01:42:22.631Z,101732.06
2022-10-04T01:49:59.936Z,101724.75
2022-10-04T01:57:39.411Z,101716.75
2022-10-04T02:05:16.871Z,101724.78
2022-10-04T02:12:55.331Z,101721.19
2022-10-04T02:20:29.309Z,101724.66
2022-10-04T02:28:05.159Z,101731.72
2022-10-04T02:35:45.826Z,101720.00
2022-10-04T02:43:26.132Z,101723.53
2022-10-04T02:51:07.807Z,101721.66
2022-10-04T02:58:43.908Z,101717.97
2022-10-04T03:06:20.923Z,101714.41
2022-10-04T03:14:00.179Z,101715.22
2022-10-04T03:21:35.050Z,101714.22
2022-10-04T03:29:12.735Z,101715.06
2022-10-04T03:36:48.176Z,101706.84
2022-10-04T03:44:26.852Z,101712.19
2022-10-04T03:52:02.112Z,101709.50
2022-10-04T03:59:37.591Z,101706.84
2022-10-04T04:07:15.845Z,101719.28
2022-10-04T04:14:53.233Z,101711.25
2022-10-04T04:22:31.319Z,101722.06
2022-10-04T04:30:09.296Z,101722.09
2022-10-04T04:37:43.053Z,101724.84
2022-10-04T04:45:22.819Z,101723.88
2022-10-04T04:53:01.643Z,101733.75
2022-10-04T05:00:39.407Z,101737.31
2022-10-04T05:08:17.280Z,101732.88
2022-10-04T05:15:55.972Z,101735.56
2022-10-04T05:23:29.831Z,101740.94
2022-10-04T05:31:21.565Z,101740.22
2022-10-04T05:39:03.800Z,101726.72
2022-10-04T05:46:43.889Z,101742.84
2022-10-04T05:54:22.315Z,101754.47
2022-10-04T06:02:06.618Z,101744.63
2022-10-04T06:10:03.300Z,101757.13
2022-10-04T06:17:57.603Z,101751.91
2022-10-04T06:25:37.971Z,101754.59
2022-10-04T06:33:30.472Z,101754.66
2022-10-04T06:41:43.392Z,101761.91
2022-10-04T06:49:32.150Z,101769.13
2022-10-04T06:57:37.101Z,101769.25
2022-10-04T07:05:30.178Z,101774.66
2022-10-04T07:13:29.353Z,101778.34
2022-10-04T07:21:09.678Z,101788.34
2022-10-04T07:29:03.371Z,101793.81
2022-10-04T07:36:46.823Z,101802.03
2022-10-04T07:44:30.574Z,101801.31
2022-10-04T07:52:25.946Z,101807.53
2022-10-04T08:00:05.720Z,101814.75
2022-10-04T08:07:54.757Z,101822.00
2022-10-04T08:15:38.057Z,101835.75
2022-10-04T08:23:42.119Z,101841.38
2022-10-04T08:31:28.785Z,101840.19
2022-10-04T08:39:17.988Z,101838.66
2022-10-04T08:47:28.786Z,101834.41
2022-10-04T08:55:50.419Z,101836.25
2022-10-04T09:04:05.386Z,101836.50
2022-10-04T09:11:52.128Z,101838.41
2022-10-04T09:19:44.353Z,101836.56
2022-10-04T09:27:54.336Z,101839.34
2022-10-04T09:35:51.427Z,101841.38
2022-10-04T09:43:51.445Z,101848.25
2022-10-04T09:51:45.271Z,101836.34
2022-10-04T09:59:58.494Z,101835.59
2022-10-04T10:07:46.540Z,101829.63
2022-10-04T10:15:29.952Z,101836.06
2022-10-04T10:23:38.930Z,101835.34
2022-10-04T10:31:31.142Z,101836.47
2022-10-04T10:39:34.358Z,101834.09
2022-10-04T10:47:26.202Z,101835.19
2022-10-04T10:55:25.398Z,101818.19
2022-10-04T11:03:25.458Z,101823.69
2022-10-04T11:11:17.846Z,101829.19
2022-10-04T11:19:23.358Z,101832.84
2022-10-04T11:27:28.662Z,101819.47
2022-10-04T11:35:47.470Z,101814.25
2022-10-04T11:43:53.462Z,101800.81
2022-10-04T11:52:02.297Z,101801.78
2022-10-04T11:59:50.991Z,101788.31
2022-10-04T12:07:34.625Z,101780.31
2022-10-04T12:15:34.862Z,101780.41
2022-10-04T12:23:31.032Z,101774.22
2022-10-04T12:31:23.204Z,101775.22
2022-10-04T12:39:09.526Z,101774.38
2022-10-04T12:46:58.060Z,101768.97
2022-10-04T12:54:38.878Z,101770.75
2022-10-04T13:02:33.473Z,101763.59
2022-10-04T13:10:31.123Z,101760.03
2022-10-04T13:18:19.010Z,101759.22
2022-10-04T13:26:08.209Z,101733.22
2022-10-04T13:33:51.441Z,101726.06
2022-10-04T13:41:40.970Z,101714.44
2022-10-04T13:49:30.818Z,101708.16
2022-10-04T13:57:19.247Z,101703.69
2022-10-04T14:05:34.635Z,101693.84
2022-10-04T14:13:45.264Z,101687.50
2022-10-04T14:21:54.037Z,101682.13
2022-10-04T14:30:06.216Z,101671.34
2022-10-04T14:38:26.648Z,101673.19
2022-10-04T14:46:16.865Z,101668.66
2022-10-04T14:54:01.426Z,101651.56
2022-10-04T15:01:40.247Z,101651.56
2022-10-04T15:09:28.321Z,101638.06
2022-10-04T15:17:04.730Z,101631.72
2022-10-04T15:24:51.189Z,101627.22
2022-10-04T15:32:36.210Z,101638.88
2022-10-04T15:40:27.751Z,101649.66
2022-10-04T15:48:11.680Z,101653.19
2022-10-04T15:56:02.956Z,101663.91
2022-10-04T16:03:47.208Z,101641.31
2022-10-04T16:11:47.097Z,101626.84
2022-10-04T16:19:33.803Z,101634.88
2022-10-04T16:27:24.298Z,101627.50
2022-10-04T16:35:01.396Z,101608.53
2022-10-04T16:42:48.609Z,101625.47
2022-10-04T16:50:54.430Z,101643.31
2022-10-04T17:06:37.828Z,101657.22
2022-10-04T17:14:36.207Z,101657.03
2022-10-04T17:22:24.510Z,101651.44
2022-10-04T17:30:12.944Z,101658.38
2022-10-04T17:37:59.925Z,101651.81
2022-10-04T17:45:48.494Z,101660.50
2022-10-04T17:53:47.142Z,101652.19
2022-10-04T18:01:30.087Z,101646.69
2022-10-04T18:09:17.181Z,101651.00
2022-10-04T18:16:57.616Z,101655.28
2022-10-04T18:24:32.945Z,101656.84
2022-10-04T18:32:33.342Z,101659.28
2022-10-04T18:40:17.864Z,101634.91
2022-10-04T18:47:52.687Z,101634.75
2022-10-04T18:55:38.961Z,101633.69
2022-10-04T19:03:25.276Z,101644.19
2022-10-04T19:11:05.004Z,101645.75
2022-10-04T19:18:48.271Z,101630.41
2022-10-04T19:26:33.021Z,101647.19
2022-10-04T19:34:13.590Z,101636.25
2022-10-04T19:41:57.611Z,101653.13
2022-10-04T19:49:44.083Z,101652.97
2022-10-04T19:57:29.437Z,101660.91
2022-10-04T20:05:02.959Z,101656.19
2022-10-04T20:12:40.273Z,101656.88
2022-10-04T20:20:16.456Z,101653.97
2022-10-04T20:28:06.527Z,101660.94
2022-10-04T20:36:09.154Z,101649.13
2022-10-04T20:43:56.160Z,101643.59
2022-10-04T20:51:33.233Z,101649.63
2022-10-04T20:59:16.702Z,101629.81
2022-10-04T21:06:53.476Z,101624.38
2022-10-04T21:14:29.882Z,101634.03
2022-10-04T21:22:05.317Z,101663.41
2022-10-04T21:29:40.809Z,101624.94
2022-10-04T21:37:14.561Z,101602.44
2022-10-04T21:44:49.822Z,101595.19
2022-10-04T21:52:23.516Z,101595.13
2022-10-04T21:59:58.457Z,101599.44
2022-10-04T22:07:32.211Z,101588.63
2022-10-04T22:15:08.143Z,101583.09
2022-10-04T22:22:41.902Z,101573.13
2022-10-04T22:30:23.728Z,101570.34
2022-10-04T22:37:58.038Z,101561.22
2022-10-04T22:45:33.703Z,101559.28
2022-10-04T22:53:13.207Z,101544.91
2022-10-04T23:00:48.899Z,101540.19
2022-10-04T23:08:22.723Z,101545.25
2022-10-04T23:16:01.182Z,101555.78
2022-10-04T23:23:34.918Z,101555.53
2022-10-04T23:31:17.821Z,101539.28
2022-10-04T23:38:56.740Z,101523.09
2022-10-04T23:46:32.313Z,101531.75
2022-10-04T23:54:07.280Z,101537.81
